Terminal Aerodrome Forecast
Issued by NWS

Current Version | Previous Version | Graphics & Text | Print | Product List | Glossary On
Versions: 1 2 3 4 5 6 7 8 9 10 11 12 13 14 15
000
FTUS41 KPBZ 201722
TAFMGW
TAF
KMGW 201722Z 2018/2118 21007KT P6SM SKC
     FM210900 19006KT P6SM SKC WS020/22035KT
     FM211500 21010KT P6SM FEW150=

USA.gov is the U.S. government's official web portal to all federal, state and local government web resources and services.